KORL/ORL METAR and TAF weather

Enter ICAO airport designator
Station Type Date Time Source
KORL METAR 2019/04/25 17:53 UTC NOAA

KORL 251753Z 19012G18KT 10SM CLR 29/15 A2998 RMK AO2 SLP156 T02890150 10289 20194 58017


Station Type Date Time Source
KORL Decoded METAR 2019/04/25 17:53 UTC NOAA

ORLANDO EXECUTIVE AIRPORT, FL, United States (KORL) 28-33N 081-20W 37M
Apr 25, 2019 - 01:53 PM EDT / 2019.04.25 1753 UTC
Wind: from the S (190 degrees) at 14 MPH (12 KT) gusting to 21 MPH (18 KT):0
Visibility: 10 mile(s):0
Sky conditions: clear
Temperature: 84.0 F (28.9 C)
Dew Point: 59.0 F (15.0 C)
Relative Humidity: 42%
Pressure (altimeter): 29.98 in. Hg (1015 hPa)
Pressure tendency: 0.05 inches (1.7 hPa) lower than three hours ago
ob: KORL 251753Z 19012G18KT 10SM CLR 29/15 A2998 RMK AO2 SLP156 T02890150 10289 20194 58017
cycle: 18

Station Type Date Time Source
KORL TAF UTC NOAA

Error!

Example: see airport list